This is the latest recevied weather packets stored in our database for station/object IW9CSJ-13. If no packets are shown the sender has not sent any weather packets the latest 10 day(s).
| Time | Temp. | Humidity | Pressure | Rain* | Wind** | Luminosity | Snow |
|---|---|---|---|---|---|---|---|
| 1777656917 | 13.33° C | 76% | 1016.8 hPa | 0 mm | - | - | - |
| 1777656616 | 13.33° C | 80% | 1016.7 hPa | 0 mm | - | - | - |
| 1777655719 | 13.33° C | 82% | 1016.6 hPa | 0 mm | - | - | - |
| 1777654819 | 13.33° C | 82% | 1016.6 hPa | 0 mm | - | - | - |
| 1777652423 | 13.89° C | 82% | 1016.1 hPa | 0 mm | - | - | - |
| 1777651820 | 13.89° C | 82% | 1016.2 hPa | 0 mm | - | - | - |
| 1777651220 | 13.89° C | 82% | 1016.2 hPa | 0 mm | - | - | - |
| 1777646425 | 14.44° C | 80% | 1016.2 hPa | 0 mm | - | - | - |
| 1777645521 | 14.44° C | 80% | 1016.3 hPa | 0 mm | - | - | - |
| 1777644923 | 14.44° C | 80% | 1016.3 hPa | 0 mm | - | - | - |
| 1777644319 | 14.44° C | 81% | 1016.2 hPa | 0 mm | - | - | - |
| 1777644021 | 14.44° C | 81% | 1016.4 hPa | 0 mm | - | - | - |
| 1777640424 | 14.44° C | 82% | 1016.8 hPa | 0 mm | - | - | - |
| 1777634722 | 14.44° C | 85% | 1017.1 hPa | 0 mm | - | - | - |
| 1777634117 | 14.44° C | 86% | 1017.1 hPa | 0 mm | - | - | - |
| 1777628422 | 14.44° C | 89% | 1017 hPa | 0 mm | - | - | - |
| 1777534219 | 20° C | 53% | 1014.2 hPa | 0 mm | - | - | - |
| 1777532417 | 20° C | 54% | 1014.1 hPa | 0 mm | - | - | - |
| 1777531823 | 20° C | 54% | 1014 hPa | 0 mm | - | - | - |
| 1777530019 | 19.44° C | 53% | 1013.8 hPa | 0 mm | - | - | - |
| 1777529126 | 18.89° C | 54% | 1013.7 hPa | 0 mm | - | - | - |
| 1777527917 | 17.78° C | 55% | 1013.8 hPa | 0 mm | - | - | - |
| 1777527657 | 17.78° C | 54% | 1013.8 hPa | 0 mm | - | - | - |
| 1777525219 | 16.67° C | 50% | 1013.9 hPa | 0 mm | - | - | - |
| 1777524021 | 16.67° C | 49% | 1014 hPa | 0 mm | - | - | - |
* Rain latest hour (hover to see other rain measurements)
** Current wind speed in m/s (hover to see current wind gust speed)